Ballerina — SKNY — position and weather

sailwx.info

Track history (hours):
 
Tides and Currents Weather Stations Pressure Air Temp Water Temp Dewpoint Dewpoint Depression Visibility Wind Speed Wind Dir Waves Ship Positions

Ballerina

Last reported at 2016-Dec-06 18:25 UTC. Time now 2016-Dec-06 21:57 UTC.
Position N 59°23' E 018°06'.

Type: Passenger vessel. MMSI: 265550720.

Date/timePositionNaut miles runAvg speedWind from/ knotsBaromVisibWave heightAir tempDewpointWater temp
2016-Dec-06 18:25N 59°23' E 018°06'0 0.2
2016-Dec-06 17:07N 59°23' E 018°06'1 1.3
2016-Dec-06 16:20N 59°23' E 018°06'2 1.1
2016-Dec-06 14:31N 59°22' E 018°06'1 0.1
2016-Dec-06 08:07N 59°22' E 018°06'0 0.0
2016-Dec-06 06:27N 59°22' E 018°06'1 1.1
2016-Dec-06 05:25N 59°23' E 018°06'2 0.2
2016-Dec-05 17:30N 59°21' E 018°06'1 0.9
2016-Dec-05 16:09N 59°23' E 018°06'1 0.7
2016-Dec-05 14:30N 59°22' E 018°06'1 0.2
2016-Dec-05 09:05N 59°22' E 018°06'0 0.0
2016-Dec-05 07:24N 59°22' E 018°06'0 0.1
2016-Dec-05 06:27N 59°22' E 018°06'1 1.0
2016-Dec-05 05:22N 59°24' E 018°06'1 0.1
2016-Dec-04 17:33N 59°23' E 018°06'1 1.2
2016-Dec-04 16:31N 59°21' E 018°06'2 1.7
2016-Dec-04 15:17N 59°24' E 018°06'1 1.0
2016-Dec-04 14:33N 59°23' E 018°06'0 0.1
2016-Dec-04 12:03N 59°23' E 018°06'0 0.3
2016-Dec-04 11:10N 59°23' E 018°06'0 0.1
2016-Dec-04 10:33N 59°23' E 018°06'1 0.9
2016-Dec-04 09:32N 59°22' E 018°06'0 0.0
2016-Dec-03 17:33N 59°22' E 018°06'1 0.5
2016-Dec-03 16:33N 59°22' E 018°06'1 1.0
2016-Dec-03 15:14N 59°23' E 018°05'0 0.5
2016-Dec-03 14:33N 59°23' E 018°06'1 0.5
2016-Dec-03 12:16N 59°21' E 018°06'1 1.4
2016-Dec-03 11:13N 59°23' E 018°05'1 0.8
2016-Dec-03 09:32N 59°22' E 018°07'1 0.9
2016-Dec-03 08:12N 59°23' E 018°06'1 0.1
2016-Dec-02 17:14N 59°22' E 018°06'1 0.7
2016-Dec-02 16:07N 59°22' E 018°06'1 0.9
2016-Dec-02 15:29N 59°23' E 018°06'1 0.2
2016-Dec-02 09:11N 59°22' E 018°06'1 1.2
2016-Dec-02 08:09N 59°23' E 018°06'1 1.8
2016-Dec-02 07:29N 59°22' E 018°06'1 1.5
2016-Dec-02 06:33N 59°23' E 018°05'0 0.2
2016-Dec-02 05:15N 59°23' E 018°06'0 0.0
2016-Dec-01 18:31N 59°22' E 018°06'0 0.0
2016-Dec-01 17:05N 59°22' E 018°06'0 0.5
2016-Dec-01 16:10N 59°23' E 018°06'0 0.4
2016-Dec-01 15:33N 59°23' E 018°06'0 0.0
2016-Dec-01 09:04N 59°22' E 018°06'0 0.5
2016-Dec-01 08:10N 59°23' E 018°06'1 1.9
2016-Dec-01 07:33N 59°22' E 018°06'1 1.4
2016-Dec-01 06:33N 59°23' E 018°06'0 0.2
2016-Dec-01 05:16N 59°23' E 018°06'0 0.0
2016-Nov-30 18:31N 59°23' E 018°06'1 0.8
2016-Nov-30 17:13N 59°22' E 018°06'2 2.4
2016-Nov-30 16:21N 59°24' E 018°06'1 1.2
2016-Nov-30 15:33N 59°23' E 018°06'1 0.8
2016-Nov-30 14:33N 59°22' E 018°06'0 0.1
2016-Nov-30 09:24N 59°21' E 018°06'2 2.0
2016-Nov-30 08:20N 59°24' E 018°06'2 2.6
2016-Nov-30 07:31N 59°22' E 018°06'1 1.2
2016-Nov-30 06:30N 59°23' E 018°06'0 0.2
2016-Nov-30 05:17N 59°23' E 018°05'1 0.1
2016-Nov-29 18:28N 59°22' E 018°06'1 0.8
2016-Nov-29 17:16N 59°22' E 018°06'2 2.1
2016-Nov-29 16:19N 59°23' E 018°06'1 1.0
2016-Nov-29 15:33N 59°23' E 018°06'1 0.8
2016-Nov-29 14:33N 59°22' E 018°06'0 0.1
2016-Nov-29 09:16N 59°21' E 018°06'1 1.3
2016-Nov-29 08:12N 59°23' E 018°05'1 2.0
2016-Nov-29 07:30N 59°22' E 018°06'1 1.2
2016-Nov-29 06:30N 59°23' E 018°06'1 0.5
2016-Nov-29 05:21N 59°23' E 018°05'1 0.1
2016-Nov-28 18:30N 59°22' E 018°06'1 0.8
2016-Nov-28 17:32N 59°22' E 018°06'2 1.6
2016-Nov-28 16:21N 59°24' E 018°06'1 1.3
2016-Nov-28 15:33N 59°23' E 018°06'1 1.1
2016-Nov-28 14:27N 59°22' E 018°06'0 0.0
2016-Nov-28 12:10N 59°21' E 018°06'0 0.0
2016-Nov-28 11:22N 59°21' E 018°06'0 0.0
2016-Nov-28 10:31N 59°21' E 018°06'0 0.1
2016-Nov-28 09:09N 59°22' E 018°06'1 0.8
2016-Nov-28 08:06N 59°22' E 018°06'1 1.5
2016-Nov-28 07:31N 59°22' E 018°06'1 1.2
2016-Nov-28 06:29N 59°23' E 018°06'1 0.7
2016-Nov-28 05:23N 59°23' E 018°06'2 0.2
2016-Nov-27 16:32N 59°22' E 018°06'2 1.8
2016-Nov-27 15:21N 59°24' E 018°06'2 0.7
2016-Nov-27 12:13N 59°21' E 018°06'1 1.4
2016-Nov-27 11:14N 59°23' E 018°06'  
Track history (hours):
 
Tides and Currents Weather Stations Pressure Air Temp Water Temp Dewpoint Dewpoint Depression Visibility Wind Speed Wind Dir Waves Ship Positions

Ballerina

Last reported at 2016-Dec-06 18:25 UTC. Time now 2016-Dec-06 21:57 UTC.
Position N 59°23' E 018°06'.

Type: Passenger vessel. MMSI: 265550720.

Date/timePositionNaut miles runAvg speedWind from/ knotsBaromVisibWave heightAir tempDewpointWater temp
2016-Dec-06 18:25N 59°23' E 018°06'0 0.2
2016-Dec-06 17:07N 59°23' E 018°06'1 1.3
2016-Dec-06 16:20N 59°23' E 018°06'2 1.1
2016-Dec-06 14:31N 59°22' E 018°06'1 0.1
2016-Dec-06 08:07N 59°22' E 018°06'0 0.0
2016-Dec-06 06:27N 59°22' E 018°06'1 1.1
2016-Dec-06 05:25N 59°23' E 018°06'2 0.2
2016-Dec-05 17:30N 59°21' E 018°06'1 0.9
2016-Dec-05 16:09N 59°23' E 018°06'1 0.7
2016-Dec-05 14:30N 59°22' E 018°06'1 0.2
2016-Dec-05 09:05N 59°22' E 018°06'0 0.0
2016-Dec-05 07:24N 59°22' E 018°06'0 0.1
2016-Dec-05 06:27N 59°22' E 018°06'1 1.0
2016-Dec-05 05:22N 59°24' E 018°06'1 0.1
2016-Dec-04 17:33N 59°23' E 018°06'1 1.2
2016-Dec-04 16:31N 59°21' E 018°06'2 1.7
2016-Dec-04 15:17N 59°24' E 018°06'1 1.0
2016-Dec-04 14:33N 59°23' E 018°06'0 0.1
2016-Dec-04 12:03N 59°23' E 018°06'0 0.3
2016-Dec-04 11:10N 59°23' E 018°06'0 0.1
2016-Dec-04 10:33N 59°23' E 018°06'1 0.9
2016-Dec-04 09:32N 59°22' E 018°06'0 0.0
2016-Dec-03 17:33N 59°22' E 018°06'1 0.5
2016-Dec-03 16:33N 59°22' E 018°06'1 1.0
2016-Dec-03 15:14N 59°23' E 018°05'0 0.5
2016-Dec-03 14:33N 59°23' E 018°06'1 0.5
2016-Dec-03 12:16N 59°21' E 018°06'1 1.4
2016-Dec-03 11:13N 59°23' E 018°05'1 0.8
2016-Dec-03 09:32N 59°22' E 018°07'1 0.9
2016-Dec-03 08:12N 59°23' E 018°06'1 0.1
2016-Dec-02 17:14N 59°22' E 018°06'1 0.7
2016-Dec-02 16:07N 59°22' E 018°06'1 0.9
2016-Dec-02 15:29N 59°23' E 018°06'1 0.2
2016-Dec-02 09:11N 59°22' E 018°06'1 1.2
2016-Dec-02 08:09N 59°23' E 018°06'1 1.8
2016-Dec-02 07:29N 59°22' E 018°06'1 1.5
2016-Dec-02 06:33N 59°23' E 018°05'0 0.2
2016-Dec-02 05:15N 59°23' E 018°06'0 0.0
2016-Dec-01 18:31N 59°22' E 018°06'0 0.0
2016-Dec-01 17:05N 59°22' E 018°06'0 0.5
2016-Dec-01 16:10N 59°23' E 018°06'0 0.4
2016-Dec-01 15:33N 59°23' E 018°06'0 0.0
2016-Dec-01 09:04N 59°22' E 018°06'0 0.5
2016-Dec-01 08:10N 59°23' E 018°06'1 1.9
2016-Dec-01 07:33N 59°22' E 018°06'1 1.4
2016-Dec-01 06:33N 59°23' E 018°06'0 0.2
2016-Dec-01 05:16N 59°23' E 018°06'0 0.0
2016-Nov-30 18:31N 59°23' E 018°06'1 0.8
2016-Nov-30 17:13N 59°22' E 018°06'2 2.4
2016-Nov-30 16:21N 59°24' E 018°06'1 1.2
2016-Nov-30 15:33N 59°23' E 018°06'1 0.8
2016-Nov-30 14:33N 59°22' E 018°06'0 0.1
2016-Nov-30 09:24N 59°21' E 018°06'2 2.0
2016-Nov-30 08:20N 59°24' E 018°06'2 2.6
2016-Nov-30 07:31N 59°22' E 018°06'1 1.2
2016-Nov-30 06:30N 59°23' E 018°06'0 0.2
2016-Nov-30 05:17N 59°23' E 018°05'1 0.1
2016-Nov-29 18:28N 59°22' E 018°06'1 0.8
2016-Nov-29 17:16N 59°22' E 018°06'2 2.1
2016-Nov-29 16:19N 59°23' E 018°06'1 1.0
2016-Nov-29 15:33N 59°23' E 018°06'1 0.8
2016-Nov-29 14:33N 59°22' E 018°06'0 0.1
2016-Nov-29 09:16N 59°21' E 018°06'1 1.3
2016-Nov-29 08:12N 59°23' E 018°05'1 2.0
2016-Nov-29 07:30N 59°22' E 018°06'1 1.2
2016-Nov-29 06:30N 59°23' E 018°06'1 0.5
2016-Nov-29 05:21N 59°23' E 018°05'1 0.1
2016-Nov-28 18:30N 59°22' E 018°06'1 0.8
2016-Nov-28 17:32N 59°22' E 018°06'2 1.6
2016-Nov-28 16:21N 59°24' E 018°06'1 1.3
2016-Nov-28 15:33N 59°23' E 018°06'1 1.1
2016-Nov-28 14:27N 59°22' E 018°06'0 0.0
2016-Nov-28 12:10N 59°21' E 018°06'0 0.0
2016-Nov-28 11:22N 59°21' E 018°06'0 0.0
2016-Nov-28 10:31N 59°21' E 018°06'0 0.1
2016-Nov-28 09:09N 59°22' E 018°06'1 0.8
2016-Nov-28 08:06N 59°22' E 018°06'1 1.5
2016-Nov-28 07:31N 59°22' E 018°06'1 1.2
2016-Nov-28 06:29N 59°23' E 018°06'1 0.7
2016-Nov-28 05:23N 59°23' E 018°06'2 0.2
2016-Nov-27 16:32N 59°22' E 018°06'2 1.8
2016-Nov-27 15:21N 59°24' E 018°06'2 0.7
2016-Nov-27 12:13N 59°21' E 018°06'1 1.4
2016-Nov-27 11:14N 59°23' E 018°06'  

Dump ship's entire track history